createdAt,value
2016-12-28T00:00:46.536Z,1028.55
2016-12-28T00:01:57.445Z,1028.52
2016-12-28T00:03:08.355Z,1028.52
2016-12-28T00:04:19.312Z,1028.58
2016-12-28T00:05:30.253Z,1028.58
2016-12-28T00:06:40.818Z,1028.65
2016-12-28T00:07:51.375Z,1028.65
2016-12-28T00:09:01.940Z,1028.7
2016-12-28T00:10:12.897Z,1028.68
2016-12-28T00:11:23.803Z,1028.75
2016-12-28T00:12:34.713Z,1028.77
2016-12-28T00:13:45.617Z,1028.8
2016-12-28T00:14:56.182Z,1028.77
2016-12-28T00:16:07.140Z,1028.75
2016-12-28T00:17:18.057Z,1028.69
2016-12-28T00:18:28.626Z,1028.72
2016-12-28T00:19:39.532Z,1028.67
2016-12-28T00:20:50.440Z,1028.64
2016-12-28T00:22:01.394Z,1028.74
2016-12-28T00:23:11.611Z,1028.68
2016-12-28T00:24:22.172Z,1028.75
2016-12-28T00:25:32.745Z,1028.75
2016-12-28T00:26:43.686Z,1028.83
2016-12-28T00:27:54.648Z,1028.81
2016-12-28T00:29:05.209Z,1028.78
2016-12-28T00:30:16.141Z,1028.8
2016-12-28T00:31:26.707Z,1028.78
2016-12-28T00:32:37.289Z,1028.8
2016-12-28T00:33:47.901Z,1028.8
2016-12-28T00:34:58.463Z,1028.74
2016-12-28T00:36:09.368Z,1028.69
2016-12-28T00:37:19.929Z,1028.69
2016-12-28T00:38:30.838Z,1028.7
2016-12-28T00:39:41.804Z,1028.67
2016-12-28T00:40:52.360Z,1028.72
2016-12-28T00:42:03.266Z,1028.72
2016-12-28T00:43:13.487Z,1028.75
2016-12-28T00:44:24.424Z,1028.76
2016-12-28T00:45:35.061Z,1028.75
2016-12-28T00:46:45.970Z,1028.72
2016-12-28T00:47:56.876Z,1028.75
2016-12-28T00:49:07.777Z,1028.68
2016-12-28T00:50:18.682Z,1028.68
2016-12-28T00:51:29.307Z,1028.66
2016-12-28T00:52:40.221Z,1028.65
2016-12-28T00:53:50.786Z,1028.74
2016-12-28T00:55:01.695Z,1028.72
2016-12-28T00:56:12.260Z,1028.63
2016-12-28T00:57:23.241Z,1028.68
2016-12-28T00:58:34.162Z,1028.7
2016-12-28T00:59:44.719Z,1028.69
2016-12-28T01:00:55.617Z,1028.67
2016-12-28T01:02:06.526Z,1028.7
2016-12-28T01:03:17.143Z,1028.68
2016-12-28T01:04:28.048Z,1028.64
2016-12-28T01:05:38.961Z,1028.65
2016-12-28T01:06:49.179Z,1028.83
2016-12-28T01:08:00.096Z,1028.79
2016-12-28T01:09:11.053Z,1028.86
2016-12-28T01:10:21.614Z,1028.87
2016-12-28T01:11:32.520Z,1028.84
2016-12-28T01:12:43.437Z,1028.86
2016-12-28T01:13:54.002Z,1028.73
2016-12-28T01:15:04.955Z,1028.77
2016-12-28T01:16:15.864Z,1028.81
2016-12-28T01:17:26.430Z,1028.77
2016-12-28T01:18:37.342Z,1028.78
2016-12-28T01:19:48.248Z,1028.77
2016-12-28T01:20:58.865Z,1028.7
2016-12-28T01:22:09.788Z,1028.72
2016-12-28T01:23:20.367Z,1028.75
2016-12-28T01:24:31.277Z,1028.77
2016-12-28T01:25:42.186Z,1028.78
2016-12-28T01:26:52.803Z,1028.79
2016-12-28T01:28:03.704Z,1028.78
2016-12-28T01:29:14.286Z,1028.73
2016-12-28T01:30:24.847Z,1028.84
2016-12-28T01:31:35.415Z,1028.84
2016-12-28T01:32:46.125Z,1028.85
2016-12-28T01:33:56.694Z,1028.85
2016-12-28T01:35:07.603Z,1028.76
2016-12-28T01:36:18.179Z,1028.83
2016-12-28T01:37:28.742Z,1028.79
2016-12-28T01:38:39.731Z,1028.84
2016-12-28T01:39:50.636Z,1028.84
2016-12-28T01:41:01.533Z,1028.87
2016-12-28T01:42:12.115Z,1028.92
2016-12-28T01:43:22.671Z,1028.99
2016-12-28T01:44:33.642Z,1028.94
2016-12-28T01:45:44.206Z,1029
2016-12-28T01:46:55.123Z,1028.95
2016-12-28T01:48:06.068Z,1028.94
2016-12-28T01:49:16.661Z,1028.91
2016-12-28T01:50:26.931Z,1029.02
2016-12-28T01:51:37.499Z,1028.98
2016-12-28T01:52:48.061Z,1029.01
2016-12-28T01:53:58.974Z,1029.05
2016-12-28T01:55:09.887Z,1029.07
2016-12-28T01:56:20.848Z,1029.07
2016-12-28T01:57:31.758Z,1029.04
2016-12-28T01:58:42.670Z,1029.06
2016-12-28T01:59:53.575Z,1029.07
2016-12-28T02:01:04.146Z,1029
2016-12-28T02:02:15.106Z,1028.98
2016-12-28T02:03:26.003Z,1028.96
2016-12-28T02:04:36.564Z,1028.93
2016-12-28T02:05:47.481Z,1028.98
2016-12-28T02:06:58.382Z,1028.92
2016-12-28T02:08:09.027Z,1028.96
2016-12-28T02:09:19.588Z,1029.01
2016-12-28T02:10:30.149Z,1029.05
2016-12-28T02:11:41.074Z,1029.03
2016-12-28T02:12:51.639Z,1029.02
2016-12-28T02:14:02.605Z,1029.1
2016-12-28T02:15:13.514Z,1029.02
2016-12-28T02:16:23.735Z,1029.01
2016-12-28T02:17:34.300Z,1029.05
2016-12-28T02:18:45.209Z,1029.01
2016-12-28T02:19:55.826Z,1028.99
2016-12-28T02:21:06.743Z,1029.05
2016-12-28T02:22:17.680Z,1028.98
2016-12-28T02:23:28.593Z,1029.02
2016-12-28T02:24:39.150Z,1029
2016-12-28T02:25:50.303Z,1028.95
2016-12-28T02:27:00.869Z,1028.93
2016-12-28T02:28:11.782Z,1028.85
2016-12-28T02:29:22.345Z,1028.94
2016-12-28T02:30:33.248Z,1028.98
2016-12-28T02:31:43.513Z,1028.94
2016-12-28T02:32:54.418Z,1028.87
2016-12-28T02:34:04.975Z,1028.97
2016-12-28T02:35:15.532Z,1028.94
2016-12-28T02:36:26.445Z,1028.88
2016-12-28T02:37:37.409Z,1028.91
2016-12-28T02:38:48.318Z,1028.86
2016-12-28T02:39:58.883Z,1028.85
2016-12-28T02:41:09.789Z,1028.78
2016-12-28T02:42:20.721Z,1028.85
2016-12-28T02:43:31.678Z,1028.82
2016-12-28T02:44:42.591Z,1028.85
2016-12-28T02:45:53.492Z,1028.8
2016-12-28T02:47:04.397Z,1028.77
2016-12-28T02:48:14.966Z,1028.79
2016-12-28T02:49:26.027Z,1028.81
2016-12-28T02:50:36.588Z,1028.87
2016-12-28T02:51:47.493Z,1028.91
2016-12-28T02:52:58.062Z,1028.92
2016-12-28T02:54:08.627Z,1028.9
2016-12-28T02:55:19.236Z,1028.92
2016-12-28T02:56:29.793Z,1028.92
2016-12-28T02:57:40.702Z,1028.92
2016-12-28T02:58:51.613Z,1028.95
2016-12-28T03:00:02.517Z,1028.94
2016-12-28T03:01:13.489Z,1028.97
2016-12-28T03:02:24.402Z,1028.93
2016-12-28T03:03:35.311Z,1028.95
2016-12-28T03:04:46.220Z,1028.96
2016-12-28T03:05:56.785Z,1028.99
2016-12-28T03:07:07.749Z,1028.93
2016-12-28T03:08:18.659Z,1028.95
2016-12-28T03:09:29.252Z,1028.96
2016-12-28T03:10:40.157Z,1028.89
2016-12-28T03:11:51.062Z,1028.94
2016-12-28T03:13:01.675Z,1028.98
2016-12-28T03:14:12.243Z,1028.92
2016-12-28T03:15:22.797Z,1028.91
2016-12-28T03:16:33.354Z,1028.93
2016-12-28T03:17:43.919Z,1028.86
2016-12-28T03:18:54.544Z,1028.87
2016-12-28T03:20:04.779Z,1028.88
2016-12-28T03:21:15.690Z,1028.8
2016-12-28T03:22:26.590Z,1028.72
2016-12-28T03:23:37.160Z,1028.83
2016-12-28T03:24:47.776Z,1028.73
2016-12-28T03:25:58.679Z,1028.76
2016-12-28T03:27:09.583Z,1028.77
2016-12-28T03:28:20.496Z,1028.8
2016-12-28T03:29:31.401Z,1028.76
2016-12-28T03:30:42.098Z,1028.76
2016-12-28T03:31:52.659Z,1028.78
2016-12-28T03:33:03.568Z,1028.78
2016-12-28T03:34:14.141Z,1028.76
2016-12-28T03:35:25.042Z,1028.75
2016-12-28T03:36:35.995Z,1028.76
2016-12-28T03:37:46.565Z,1028.71
2016-12-28T03:38:57.138Z,1028.68
2016-12-28T03:40:07.703Z,1028.69
2016-12-28T03:41:18.632Z,1028.67
2016-12-28T03:42:29.245Z,1028.71
2016-12-28T03:43:39.814Z,1028.73
2016-12-28T03:44:50.739Z,1028.86
2016-12-28T03:46:01.303Z,1028.87
2016-12-28T03:47:11.866Z,1028.91
2016-12-28T03:48:22.827Z,1028.94
2016-12-28T03:49:33.729Z,1028.95
2016-12-28T03:50:44.289Z,1028.96
2016-12-28T03:51:55.194Z,1029.05
2016-12-28T03:53:05.764Z,1029.04
2016-12-28T03:54:16.716Z,1029.06
2016-12-28T03:55:27.282Z,1029.1
2016-12-28T03:56:37.847Z,1029.05
2016-12-28T03:57:48.409Z,1029.03
2016-12-28T03:58:58.969Z,1028.99
2016-12-28T04:00:09.587Z,1029.04
2016-12-28T04:01:20.151Z,1029.05
2016-12-28T04:02:31.045Z,1029.03
2016-12-28T04:03:41.614Z,1029
2016-12-28T04:04:52.527Z,1028.96
2016-12-28T04:06:03.488Z,1028.97
2016-12-28T04:07:14.045Z,1029.02
2016-12-28T04:08:24.950Z,1028.95
2016-12-28T04:09:35.852Z,1028.99
2016-12-28T04:10:46.412Z,1029.03
2016-12-28T04:11:57.374Z,1029.08
2016-12-28T04:13:07.591Z,1029.1
2016-12-28T04:14:18.512Z,1029.12
2016-12-28T04:15:29.077Z,1029.1
2016-12-28T04:16:39.651Z,1029.11
2016-12-28T04:17:50.603Z,1029.17
2016-12-28T04:19:01.173Z,1029.21
2016-12-28T04:20:12.098Z,1029.2
2016-12-28T04:21:22.311Z,1029.16
2016-12-28T04:22:32.876Z,1029.17
2016-12-28T04:23:43.649Z,1029.08
2016-12-28T04:24:54.559Z,1029.15
2016-12-28T04:26:05.124Z,1029.14
2016-12-28T04:27:16.033Z,1029.11
2016-12-28T04:28:26.942Z,1029.14
2016-12-28T04:29:37.908Z,1029.2
2016-12-28T04:30:48.817Z,1029.16
2016-12-28T04:31:59.381Z,1029.1
2016-12-28T04:33:09.979Z,1029.13
2016-12-28T04:34:20.208Z,1029.11
2016-12-28T04:35:31.165Z,1029.1
2016-12-28T04:36:42.070Z,1029.1
2016-12-28T04:37:52.984Z,1029.06
2016-12-28T04:39:03.885Z,1028.98
2016-12-28T04:40:14.470Z,1028.99
2016-12-28T04:41:25.451Z,1028.95
2016-12-28T04:42:36.360Z,1028.93
2016-12-28T04:43:46.925Z,1028.91
2016-12-28T04:44:57.499Z,1028.78
2016-12-28T04:46:08.413Z,1028.77
2016-12-28T04:47:19.377Z,1028.75
2016-12-28T04:48:30.278Z,1028.76
2016-12-28T04:49:41.204Z,1028.73
2016-12-28T04:50:52.117Z,1028.68
2016-12-28T04:52:03.018Z,1028.68
2016-12-28T04:53:13.975Z,1028.68
2016-12-28T04:54:24.892Z,1028.6
2016-12-28T04:55:35.798Z,1028.57
2016-12-28T04:56:46.363Z,1028.55
2016-12-28T04:57:56.585Z,1028.51
2016-12-28T04:59:07.225Z,1028.54
2016-12-28T05:00:17.790Z,1028.5
2016-12-28T05:01:28.359Z,1028.43
2016-12-28T05:02:39.260Z,1028.49
2016-12-28T05:03:50.162Z,1028.52
2016-12-28T05:05:01.119Z,1028.55
2016-12-28T05:06:11.680Z,1028.63
2016-12-28T05:07:22.241Z,1028.73
2016-12-28T05:08:32.802Z,1028.88
2016-12-28T05:09:43.374Z,1028.95
2016-12-28T05:10:54.333Z,1028.98
2016-12-28T05:12:05.242Z,1029
2016-12-28T05:13:16.151Z,1028.92
2016-12-28T05:14:26.725Z,1028.95
2016-12-28T05:15:37.286Z,1028.97
2016-12-28T05:16:48.240Z,1029.04
2016-12-28T05:17:58.809Z,1029.1
2016-12-28T05:19:09.375Z,1029.11
2016-12-28T05:20:20.280Z,1029.06
2016-12-28T05:21:31.194Z,1029.12
2016-12-28T05:22:42.147Z,1029.14
2016-12-28T05:23:53.049Z,1029.15
2016-12-28T05:25:03.978Z,1029.17
2016-12-28T05:26:14.880Z,1029.18
2016-12-28T05:27:25.441Z,1029.15
2016-12-28T05:28:36.054Z,1029.15
2016-12-28T05:29:46.964Z,1029.14
2016-12-28T05:30:57.881Z,1029.06
2016-12-28T05:32:08.799Z,1029.09
2016-12-28T05:33:19.708Z,1029.12
2016-12-28T05:34:30.313Z,1029.04
2016-12-28T05:35:40.883Z,1029.01
2016-12-28T05:36:51.444Z,1028.95
2016-12-28T05:38:02.014Z,1028.99
2016-12-28T05:39:12.575Z,1029.01
2016-12-28T05:40:23.532Z,1029.04
2016-12-28T05:41:34.094Z,1029.06
2016-12-28T05:42:44.651Z,1029.04
2016-12-28T05:43:55.220Z,1029.12
2016-12-28T05:45:05.794Z,1029.13
2016-12-28T05:46:16.751Z,1029.23
2016-12-28T05:47:27.309Z,1029.24
2016-12-28T05:48:38.227Z,1029.26
2016-12-28T05:49:49.144Z,1029.25
2016-12-28T05:51:00.045Z,1029.26
2016-12-28T05:52:10.659Z,1029.34
2016-12-28T05:53:21.573Z,1029.31
2016-12-28T05:54:32.478Z,1029.34
2016-12-28T05:55:43.075Z,1029.31
2016-12-28T05:56:53.981Z,1029.31
2016-12-28T05:58:04.591Z,1029.28
2016-12-28T05:59:15.152Z,1029.3
2016-12-28T06:00:25.714Z,1029.34
2016-12-28T06:01:36.279Z,1029.34
2016-12-28T06:02:46.860Z,1029.35
2016-12-28T06:03:57.470Z,1029.4
2016-12-28T06:05:08.383Z,1029.43
2016-12-28T06:06:19.301Z,1029.43
2016-12-28T06:07:29.866Z,1029.45
2016-12-28T06:08:40.772Z,1029.54
2016-12-28T06:09:51.737Z,1029.58
2016-12-28T06:11:02.650Z,1029.61
2016-12-28T06:12:13.564Z,1029.65
2016-12-28T06:13:24.470Z,1029.64
2016-12-28T06:14:35.371Z,1029.58
2016-12-28T06:15:45.984Z,1029.49
2016-12-28T06:16:56.554Z,1029.51
2016-12-28T06:18:07.124Z,1029.46
2016-12-28T06:19:17.685Z,1029.41
2016-12-28T06:20:28.595Z,1029.43
2016-12-28T06:21:39.576Z,1029.49
2016-12-28T06:22:50.490Z,1029.53
2016-12-28T06:24:01.059Z,1029.54
2016-12-28T06:25:11.616Z,1029.55
2016-12-28T06:26:22.525Z,1029.59
2016-12-28T06:27:33.483Z,1029.6
2016-12-28T06:28:44.388Z,1029.67
2016-12-28T06:29:54.981Z,1029.71
2016-12-28T06:31:05.551Z,1029.68
2016-12-28T06:32:16.124Z,1029.76
2016-12-28T06:33:26.734Z,1029.71
2016-12-28T06:34:37.635Z,1029.83
2016-12-28T06:35:48.200Z,1029.77
2016-12-28T06:36:59.110Z,1029.83
2016-12-28T06:38:09.675Z,1029.79
2016-12-28T06:39:20.636Z,1029.74
2016-12-28T06:40:31.201Z,1029.78
2016-12-28T06:41:42.110Z,1029.79
2016-12-28T06:42:53.011Z,1029.82
2016-12-28T06:44:03.592Z,1029.8
2016-12-28T06:45:14.655Z,1029.83
2016-12-28T06:46:25.223Z,1029.81
2016-12-28T06:47:35.792Z,1029.78
2016-12-28T06:48:46.365Z,1029.76
2016-12-28T06:49:56.926Z,1029.81
2016-12-28T06:51:07.879Z,1029.83
2016-12-28T06:52:18.788Z,1029.84
2016-12-28T06:53:29.353Z,1029.89
2016-12-28T06:54:40.254Z,1029.87
2016-12-28T06:55:51.163Z,1029.91
2016-12-28T06:57:01.777Z,1029.9
2016-12-28T06:58:12.690Z,1029.92
2016-12-28T06:59:23.595Z,1029.91
2016-12-28T07:00:34.164Z,1029.85
2016-12-28T07:01:45.077Z,1029.88
2016-12-28T07:02:55.686Z,1029.84
2016-12-28T07:04:06.255Z,1029.75
2016-12-28T07:05:16.821Z,1029.77
2016-12-28T07:06:27.730Z,1029.83
2016-12-28T07:07:38.670Z,1029.84
2016-12-28T07:08:49.628Z,1029.88
2016-12-28T07:10:00.193Z,1029.9
2016-12-28T07:11:11.098Z,1029.9
2016-12-28T07:12:22.008Z,1029.93
2016-12-28T07:13:32.585Z,1029.95
2016-12-28T07:14:43.542Z,1029.96
2016-12-28T07:15:54.103Z,1029.98
2016-12-28T07:17:04.664Z,1029.99
2016-12-28T07:18:15.223Z,1030
2016-12-28T07:19:26.166Z,1030.04
2016-12-28T07:20:36.780Z,1030.06
2016-12-28T07:21:47.705Z,1030.07
2016-12-28T07:22:57.910Z,1030.1
2016-12-28T07:24:08.827Z,1030.12
2016-12-28T07:25:19.732Z,1030.1
2016-12-28T07:26:30.356Z,1030.19
2016-12-28T07:27:40.935Z,1030.11
2016-12-28T07:28:51.500Z,1030.18
2016-12-28T07:30:02.401Z,1030.15
2016-12-28T07:31:13.306Z,1030.21
2016-12-28T07:32:23.931Z,1030.16
2016-12-28T07:33:34.840Z,1030.19
2016-12-28T07:34:45.745Z,1030.16
2016-12-28T07:35:55.959Z,1030.14
2016-12-28T07:37:06.515Z,1030.17
2016-12-28T07:38:17.118Z,1030.2
2016-12-28T07:39:27.682Z,1030.23
2016-12-28T07:40:38.587Z,1030.22
2016-12-28T07:41:49.505Z,1030.24
2016-12-28T07:43:00.410Z,1030.21
2016-12-28T07:44:11.371Z,1030.24
2016-12-28T07:45:21.240Z,1030.24
2016-12-28T07:46:32.141Z,1030.28
2016-12-28T07:47:42.698Z,1030.19
2016-12-28T07:48:52.916Z,1030.19
2016-12-28T07:50:03.869Z,1030.25
2016-12-28T07:51:14.441Z,1030.28
2016-12-28T07:52:25.010Z,1030.26
2016-12-28T07:53:35.575Z,1030.27
2016-12-28T07:54:46.140Z,1030.26
2016-12-28T07:55:56.765Z,1030.32
2016-12-28T07:57:07.678Z,1030.44
2016-12-28T07:58:18.588Z,1030.42
2016-12-28T07:59:29.489Z,1030.44
2016-12-28T08:00:40.053Z,1030.43
2016-12-28T08:01:50.663Z,1030.46
2016-12-28T08:03:01.571Z,1030.47
2016-12-28T08:04:12.476Z,1030.48
2016-12-28T08:05:23.393Z,1030.49
2016-12-28T08:06:33.958Z,1030.52
2016-12-28T08:07:44.919Z,1030.47
2016-12-28T08:08:55.485Z,1030.47
2016-12-28T08:10:06.049Z,1030.5
2016-12-28T08:11:16.642Z,1030.46
2016-12-28T08:12:27.555Z,1030.41
2016-12-28T08:13:38.172Z,1030.37
2016-12-28T08:14:49.073Z,1030.53
2016-12-28T08:15:59.974Z,1030.55
2016-12-28T08:17:10.544Z,1030.49
2016-12-28T08:18:20.764Z,1030.51
2016-12-28T08:19:31.409Z,1030.53
2016-12-28T08:20:42.314Z,1030.49
2016-12-28T08:21:52.875Z,1030.48
2016-12-28T08:23:03.788Z,1030.51
2016-12-28T08:24:14.705Z,1030.51
2016-12-28T08:25:25.350Z,1030.54
2016-12-28T08:26:35.915Z,1030.52
2016-12-28T08:27:46.128Z,1030.57
2016-12-28T08:28:57.032Z,1030.62
2016-12-28T08:30:07.598Z,1030.61
2016-12-28T08:31:18.207Z,1030.6
2016-12-28T08:32:28.776Z,1030.62
2016-12-28T08:33:39.708Z,1030.67
2016-12-28T08:34:50.269Z,1030.64
2016-12-28T08:36:01.182Z,1030.63
2016-12-28T08:37:11.451Z,1030.57
2016-12-28T08:38:22.355Z,1030.59
2016-12-28T08:39:33.265Z,1030.59
2016-12-28T08:40:44.206Z,1030.62
2016-12-28T08:41:54.767Z,1030.6
2016-12-28T08:43:05.732Z,1030.56
2016-12-28T08:44:16.636Z,1030.55
2016-12-28T08:45:27.197Z,1030.55
2016-12-28T08:46:37.782Z,1030.51
2016-12-28T08:47:48.723Z,1030.54
2016-12-28T08:48:59.688Z,1030.57
2016-12-28T08:50:10.593Z,1030.58
2016-12-28T08:51:21.506Z,1030.63
2016-12-28T08:52:32.407Z,1030.61
2016-12-28T08:53:43.316Z,1030.59
2016-12-28T08:54:53.929Z,1030.6
2016-12-28T08:56:04.489Z,1030.56
2016-12-28T08:57:15.392Z,1030.57
2016-12-28T08:58:26.300Z,1030.59
2016-12-28T08:59:36.864Z,1030.62
2016-12-28T09:00:47.473Z,1030.6
2016-12-28T09:01:58.046Z,1030.61
2016-12-28T09:03:08.619Z,1030.58
2016-12-28T09:04:19.180Z,1030.54
2016-12-28T09:05:30.089Z,1030.57
2016-12-28T09:06:40.694Z,1030.58
2016-12-28T09:07:51.610Z,1030.61
2016-12-28T09:09:02.523Z,1030.63
2016-12-28T09:10:13.425Z,1030.64
2016-12-28T09:11:23.981Z,1030.66
2016-12-28T09:12:35.090Z,1030.65
2016-12-28T09:13:46.008Z,1030.66
2016-12-28T09:14:56.920Z,1030.69
2016-12-28T09:16:07.489Z,1030.72
2016-12-28T09:17:18.390Z,1030.73
2016-12-28T09:18:29.010Z,1030.78
2016-12-28T09:19:39.572Z,1030.77
2016-12-28T09:20:50.136Z,1030.75
2016-12-28T09:22:01.042Z,1030.73
2016-12-28T09:23:11.614Z,1030.72
2016-12-28T09:24:22.227Z,1030.79
2016-12-28T09:25:32.813Z,1030.76
2016-12-28T09:26:43.386Z,1030.77
2016-12-28T09:27:53.947Z,1030.78
2016-12-28T09:29:04.535Z,1030.74
2016-12-28T09:30:15.500Z,1030.73
2016-12-28T09:31:26.414Z,1030.68
2016-12-28T09:32:37.331Z,1030.68
2016-12-28T09:33:48.275Z,1030.65
2016-12-28T09:34:59.185Z,1030.68
2016-12-28T09:36:09.794Z,1030.65
2016-12-28T09:37:20.711Z,1030.65
2016-12-28T09:38:31.624Z,1030.62
2016-12-28T09:39:42.188Z,1030.65
2016-12-28T09:40:53.097Z,1030.63
2016-12-28T09:42:04.090Z,1030.66
2016-12-28T09:43:14.651Z,1030.71
2016-12-28T09:44:25.221Z,1030.7
2016-12-28T09:45:35.782Z,1030.71
2016-12-28T09:46:46.362Z,1030.71
2016-12-28T09:47:56.979Z,1030.73
2016-12-28T09:49:07.537Z,1030.74
2016-12-28T09:50:18.441Z,1030.73
2016-12-28T09:51:29.342Z,1030.73
2016-12-28T09:52:39.936Z,1030.76
2016-12-28T09:53:50.548Z,1030.74
2016-12-28T09:55:00.766Z,1030.75
2016-12-28T09:56:11.328Z,1030.72
2016-12-28T09:57:21.892Z,1030.71
2016-12-28T09:58:32.802Z,1030.7
2016-12-28T09:59:43.763Z,1030.71
2016-12-28T10:00:54.700Z,1030.69
2016-12-28T10:02:05.269Z,1030.67
2016-12-28T10:03:16.203Z,1030.66
2016-12-28T10:04:27.116Z,1030.66
2016-12-28T10:05:37.733Z,1030.61
2016-12-28T10:06:48.294Z,1030.64
2016-12-28T10:07:58.855Z,1030.59
2016-12-28T10:09:09.773Z,1030.63
2016-12-28T10:10:20.682Z,1030.57
2016-12-28T10:11:31.642Z,1030.65
2016-12-28T10:12:42.216Z,1030.64
2016-12-28T10:13:52.785Z,1030.67
2016-12-28T10:15:03.347Z,1030.66
2016-12-28T10:16:13.908Z,1030.64
2016-12-28T10:17:24.893Z,1030.63
2016-12-28T10:18:35.458Z,1030.69
2016-12-28T10:19:46.016Z,1030.65
2016-12-28T10:20:56.921Z,1030.64
2016-12-28T10:22:07.822Z,1030.65
2016-12-28T10:23:18.775Z,1030.64
2016-12-28T10:24:29.345Z,1030.65
2016-12-28T10:25:40.246Z,1030.62
2016-12-28T10:26:51.159Z,1030.65
2016-12-28T10:28:02.080Z,1030.64
2016-12-28T10:29:13.049Z,1030.63
2016-12-28T10:30:23.619Z,1030.63
2016-12-28T10:31:34.184Z,1030.64
2016-12-28T10:32:45.089Z,1030.67
2016-12-28T10:33:55.654Z,1030.62
2016-12-28T10:35:06.321Z,1030.69
2016-12-28T10:36:16.889Z,1030.68
2016-12-28T10:37:27.826Z,1030.67
2016-12-28T10:38:38.391Z,1030.66
2016-12-28T10:39:49.312Z,1030.65
2016-12-28T10:41:00.269Z,1030.64
2016-12-28T10:42:11.187Z,1030.59
2016-12-28T10:43:21.752Z,1030.54
2016-12-28T10:44:32.661Z,1030.53
2016-12-28T10:45:43.562Z,1030.5
2016-12-28T10:46:54.516Z,1030.55
2016-12-28T10:48:05.097Z,1030.53
2016-12-28T10:49:16.006Z,1030.55
2016-12-28T10:50:26.912Z,1030.58
2016-12-28T10:51:37.473Z,1030.64
2016-12-28T10:52:48.426Z,1030.63
2016-12-28T10:53:59.327Z,1030.63
2016-12-28T10:55:09.553Z,1030.64
2016-12-28T10:56:20.462Z,1030.65
2016-12-28T10:57:31.024Z,1030.62
2016-12-28T10:58:42.836Z,1030.62
2016-12-28T10:59:53.745Z,1030.58
2016-12-28T11:01:03.959Z,1030.54
2016-12-28T11:02:14.868Z,1030.54
2016-12-28T11:03:25.442Z,1030.54
2016-12-28T11:04:36.395Z,1030.49
2016-12-28T11:05:46.964Z,1030.5
2016-12-28T11:06:57.538Z,1030.46
2016-12-28T11:08:08.099Z,1030.45
2016-12-28T11:09:19.008Z,1030.46
2016-12-28T11:10:29.965Z,1030.49
2016-12-28T11:11:40.546Z,1030.46
2016-12-28T11:12:51.100Z,1030.45
2016-12-28T11:14:02.009Z,1030.44
2016-12-28T11:15:12.918Z,1030.47
2016-12-28T11:16:23.542Z,1030.42
2016-12-28T11:17:34.105Z,1030.41
2016-12-28T11:18:45.014Z,1030.48
2016-12-28T11:19:55.919Z,1030.38
2016-12-28T11:21:06.481Z,1030.36
2016-12-28T11:22:17.447Z,1030.39
2016-12-28T11:23:28.356Z,1030.42
2016-12-28T11:24:39.266Z,1030.33
2016-12-28T11:25:50.175Z,1030.3
2016-12-28T11:27:00.733Z,1030.28
2016-12-28T11:28:11.371Z,1030.26
2016-12-28T11:29:21.936Z,1030.24
2016-12-28T11:30:32.850Z,1030.24
2016-12-28T11:31:43.756Z,1030.28
2016-12-28T11:32:54.326Z,1030.24
2016-12-28T11:34:04.939Z,1030.21
2016-12-28T11:35:15.153Z,1030.23
2016-12-28T11:36:25.718Z,1030.26
2016-12-28T11:37:36.636Z,1030.25
2016-12-28T11:38:47.238Z,1030.25
2016-12-28T11:39:58.203Z,1030.28
2016-12-28T11:41:08.773Z,1030.26
2016-12-28T11:42:19.366Z,1030.2
2016-12-28T11:43:29.940Z,1030.22
2016-12-28T11:44:40.853Z,1030.17
2016-12-28T11:45:51.475Z,1030.15
2016-12-28T11:47:02.381Z,1030.13
2016-12-28T11:48:13.290Z,1030.16
2016-12-28T11:49:23.848Z,1030.19
2016-12-28T11:50:34.757Z,1030.17
2016-12-28T11:51:45.715Z,1030.2
2016-12-28T11:52:56.665Z,1030.24
2016-12-28T11:54:07.563Z,1030.16
2016-12-28T11:55:18.887Z,1030.17
2016-12-28T11:56:30.217Z,1030.18
2016-12-28T11:57:41.162Z,1030.25
2016-12-28T11:58:52.068Z,1030.23
2016-12-28T12:00:03.385Z,1030.23
2016-12-28T12:01:14.287Z,1030.22
2016-12-28T12:02:25.180Z,1030.23
2016-12-28T12:03:35.726Z,1030.21
2016-12-28T12:04:47.043Z,1030.28
2016-12-28T12:05:58.377Z,1030.29
2016-12-28T12:07:09.694Z,1030.28
2016-12-28T12:08:21.015Z,1030.29
2016-12-28T12:09:31.964Z,1030.35
2016-12-28T12:10:42.854Z,1030.35
2016-12-28T12:11:54.179Z,1030.32
2016-12-28T12:13:05.073Z,1030.35
2016-12-28T12:14:16.603Z,1030.35
2016-12-28T12:15:27.976Z,1030.33
2016-12-28T12:16:38.866Z,1030.26
2016-12-28T12:17:50.211Z,1030.26
2016-12-28T12:19:01.532Z,1030.22
2016-12-28T12:20:12.886Z,1030.2
2016-12-28T12:21:23.835Z,1030.16
2016-12-28T12:22:34.737Z,1030.17
2016-12-28T12:23:45.622Z,1030.13
2016-12-28T12:24:56.519Z,1030.15
2016-12-28T12:26:07.409Z,1030.13
2016-12-28T12:27:18.826Z,1030.11
2016-12-28T12:28:29.715Z,1030.04
2016-12-28T12:29:41.041Z,1030.05
2016-12-28T12:30:51.931Z,1030.07
2016-12-28T12:32:03.252Z,1030.06
2016-12-28T12:33:14.193Z,1030.05
2016-12-28T12:34:25.091Z,1030.07
2016-12-28T12:35:36.424Z,1030.03
2016-12-28T12:36:47.746Z,1029.98
2016-12-28T12:37:59.071Z,1030.03
2016-12-28T12:39:10.020Z,1030.01
2016-12-28T12:40:21.346Z,1030.01
2016-12-28T12:41:31.860Z,1029.96
2016-12-28T12:42:42.784Z,1029.94
2016-12-28T12:43:53.898Z,1029.99
2016-12-28T12:45:04.908Z,1029.94
2016-12-28T12:46:15.801Z,1029.94
2016-12-28T12:47:26.279Z,1029.95
2016-12-28T12:48:38.072Z,1029.9
2016-12-28T12:49:48.978Z,1029.93
2016-12-28T12:50:59.503Z,1029.91
2016-12-28T12:52:10.824Z,1029.98
2016-12-28T12:53:21.830Z,1029.97
2016-12-28T12:54:32.295Z,1030.02
2016-12-28T12:55:43.196Z,1030.03
2016-12-28T12:56:55.538Z,1030.02
2016-12-28T12:58:06.439Z,1030.06
2016-12-28T12:59:17.766Z,1030.04
2016-12-28T13:00:29.086Z,1030.01
2016-12-28T13:01:39.984Z,1030
2016-12-28T13:02:51.353Z,1030.02
2016-12-28T13:04:02.675Z,1030.07
2016-12-28T13:05:12.956Z,1030.12
2016-12-28T13:06:23.853Z,1030.09
2016-12-28T13:07:34.754Z,1030.13
2016-12-28T13:08:45.703Z,1030.1
2016-12-28T13:09:57.020Z,1030.09
2016-12-28T13:11:07.910Z,1030.14
2016-12-28T13:12:18.807Z,1030.15
2016-12-28T13:13:29.700Z,1030.14
2016-12-28T13:14:40.693Z,1030.14
2016-12-28T13:15:51.591Z,1030.14
2016-12-28T13:17:02.912Z,1030.14
2016-12-28T13:18:13.409Z,1030.13
2016-12-28T13:19:24.310Z,1030.12
2016-12-28T13:20:35.255Z,1030.17
2016-12-28T13:21:46.152Z,1030.11
2016-12-28T13:22:57.478Z,1030.14
2016-12-28T13:24:08.375Z,1030.1
2016-12-28T13:25:19.272Z,1030.14
2016-12-28T13:26:30.213Z,1030.16
2016-12-28T13:27:41.546Z,1030.16
2016-12-28T13:28:52.868Z,1030.11
2016-12-28T13:30:03.761Z,1030.14
2016-12-28T13:31:14.658Z,1030.12
2016-12-28T13:32:25.615Z,1030.12
2016-12-28T13:33:36.949Z,1030.15
2016-12-28T13:34:47.846Z,1030.13
2016-12-28T13:35:58.743Z,1030.14
2016-12-28T13:37:09.640Z,1030.15
2016-12-28T13:38:21.013Z,1030.17
2016-12-28T13:39:31.907Z,1030.13
2016-12-28T13:40:43.232Z,1030.12
2016-12-28T13:41:54.565Z,1030.13
2016-12-28T13:43:05.898Z,1030.15
2016-12-28T13:44:16.415Z,1030.16
2016-12-28T13:45:27.736Z,1030.19
2016-12-28T13:46:39.065Z,1030.16
2016-12-28T13:47:49.994Z,1030.14
2016-12-28T13:49:01.316Z,1030.13
2016-12-28T13:50:12.256Z,1030.11
2016-12-28T13:51:23.146Z,1030.11
2016-12-28T13:52:34.051Z,1030.13
2016-12-28T13:53:44.952Z,1030.15
2016-12-28T13:54:56.277Z,1030.15
2016-12-28T13:56:07.658Z,1030.16
2016-12-28T13:57:18.560Z,1030.13
2016-12-28T13:58:29.449Z,1030.15
2016-12-28T13:59:40.770Z,1030.11
2016-12-28T14:00:51.667Z,1030.18
2016-12-28T14:02:02.616Z,1030.14
2016-12-28T14:03:13.533Z,1030.12
2016-12-28T14:04:24.435Z,1030.13
2016-12-28T14:05:35.336Z,1030.16
2016-12-28T14:06:46.229Z,1030.09
2016-12-28T14:07:57.170Z,1030.1
2016-12-28T14:09:08.067Z,1030.11
2016-12-28T14:10:19.388Z,1030.1
2016-12-28T14:11:30.285Z,1030.1
2016-12-28T14:12:41.183Z,1030.08
2016-12-28T14:13:52.559Z,1030.01
2016-12-28T14:15:03.885Z,1030.06
2016-12-28T14:16:14.790Z,1030.04
2016-12-28T14:17:25.679Z,1030.03
2016-12-28T14:18:36.580Z,1030.04
2016-12-28T14:19:47.533Z,1030.08